Time;durP1;ratioP1;P1;durP2;ratioP2;P2;SDS_P1;SDS_P2;PMS_P1;PMS_P2;Temp;Humidity;BMP_temperature;BMP_pressure;BME280_temperature;BME280_humidity;BME280_pressure;Samples;Min_cycle;Max_cycle;Signal;HPM_P1;HPM_P2
2021/06/17 00:00:46;;;;;;;5.93;3.72;;;;;;;;;;5004707;28;20072;-84
2021/06/17 00:03:13;;;;;;;5.65;3.47;;;;;;;;;;5004321;28;20047;-84
2021/06/17 00:05:41;;;;;;;7.03;3.35;;;;;;;;;;4984282;28;20058;-84
2021/06/17 00:08:09;;;;;;;4.93;3.80;;;;;;;;;;4992637;28;20066;-86
2021/06/17 00:10:38;;;;;;;6.43;3.65;;;;;;;;;;4998498;28;20050;-86
2021/06/17 00:13:07;;;;;;;5.15;3.80;;;;;;;;;;5008746;28;20050;-86
2021/06/17 00:15:35;;;;;;;5.00;3.70;;;;;;;;;;5001271;28;20050;-84
2021/06/17 00:18:03;;;;;;;5.90;4.20;;;;;;;;;;4987474;28;20061;-84
2021/06/17 00:20:30;;;;;;;5.90;3.85;;;;;;;;;;4983130;28;20068;-84
2021/06/17 00:22:58;;;;;;;5.95;4.03;;;;;;;;;;4995419;28;20511;-84
2021/06/17 00:25:25;;;;;;;6.82;4.45;;;;;;;;;;4989209;28;20097;-84
2021/06/17 00:27:51;;;;;;;7.35;4.40;;;;;;;;;;4979008;28;20043;-84
2021/06/17 00:30:19;;;;;;;5.47;3.75;;;;;;;;;;5003042;28;20050;-86
2021/06/17 00:32:46;;;;;;;7.13;4.22;;;;;;;;;;4996575;28;20054;-86
2021/06/17 00:35:15;;;;;;;4.13;3.67;;;;;;;;;;4993591;28;20043;-85
2021/06/17 00:37:42;;;;;;;4.78;3.60;;;;;;;;;;4976863;28;20055;-86
2021/06/17 00:40:11;;;;;;;6.45;3.85;;;;;;;;;;4989406;28;20109;-86
2021/06/17 00:42:38;;;;;;;6.13;4.28;;;;;;;;;;4995156;28;20049;-86
2021/06/17 00:45:07;;;;;;;5.28;3.63;;;;;;;;;;4975672;28;20077;-86
2021/06/17 00:47:34;;;;;;;6.43;4.18;;;;;;;;;;5002910;28;20097;-86
2021/06/17 00:50:01;;;;;;;5.00;3.70;;;;;;;;;;5001102;28;20046;-85
2021/06/17 00:52:29;;;;;;;5.10;3.55;;;;;;;;;;4984885;28;20507;-87
2021/06/17 00:54:57;;;;;;;5.25;3.65;;;;;;;;;;5001616;28;20514;-85
2021/06/17 00:57:24;;;;;;;5.10;4.30;;;;;;;;;;5002050;28;20442;-86
2021/06/17 00:59:51;;;;;;;5.07;3.95;;;;;;;;;;5000400;28;20553;-86
2021/06/17 01:02:17;;;;;;;5.85;3.85;;;;;;;;;;5003170;28;20053;-86
2021/06/17 01:04:44;;;;;;;5.88;3.65;;;;;;;;;;4984736;28;20054;-86
2021/06/17 01:07:11;;;;;;;6.13;3.78;;;;;;;;;;5000782;28;20060;-87
2021/06/17 01:09:48;;;;;;;4.95;3.70;;;;;;;;;;4984901;28;20061;-87
2021/06/17 01:12:22;;;;;;;5.95;3.83;;;;;;;;;;5002427;28;20100;-85
2021/06/17 01:14:55;;;;;;;4.03;3.38;;;;;;;;;;5002702;28;20042;-85
2021/06/17 01:17:24;;;;;;;8.02;4.65;;;;;;;;;;4985169;28;20077;-84
2021/06/17 01:19:55;;;;;;;5.72;4.60;;;;;;;;;;5001074;28;20053;-85
2021/06/17 01:22:32;;;;;;;6.07;3.75;;;;;;;;;;5000361;28;20062;-84
2021/06/17 01:25:15;;;;;;;5.13;3.80;;;;;;;;;;4999610;28;20051;-84
2021/06/17 01:28:07;;;;;;;5.65;3.63;;;;;;;;;;4997133;28;20514;-85
2021/06/17 01:30:37;;;;;;;5.00;4.28;;;;;;;;;;5000945;28;20046;-85
2021/06/17 01:33:05;;;;;;;5.38;4.20;;;;;;;;;;5001400;28;20057;-84
2021/06/17 01:35:35;;;;;;;4.82;3.42;;;;;;;;;;4999282;28;20046;-84
2021/06/17 01:38:03;;;;;;;5.30;4.43;;;;;;;;;;4999267;28;20046;-84
2021/06/17 01:40:31;;;;;;;8.65;4.57;;;;;;;;;;4997846;28;20406;-84
2021/06/17 01:42:59;;;;;;;5.13;3.75;;;;;;;;;;5002856;28;20046;-85
2021/06/17 01:45:28;;;;;;;5.93;3.95;;;;;;;;;;5002959;28;20052;-85
2021/06/17 01:47:55;;;;;;;8.18;4.15;;;;;;;;;;5001925;28;20422;-85
2021/06/17 01:50:25;;;;;;;5.97;3.97;;;;;;;;;;5001430;28;20046;-85
2021/06/17 01:52:53;;;;;;;6.05;3.60;;;;;;;;;;5002159;28;20047;-85
2021/06/17 01:55:20;;;;;;;6.43;4.82;;;;;;;;;;5002213;28;20056;-85
2021/06/17 01:57:47;;;;;;;5.35;3.75;;;;;;;;;;5000739;28;20062;-85
2021/06/17 02:00:14;;;;;;;4.97;3.80;;;;;;;;;;4983141;28;20418;-85
2021/06/17 02:02:43;;;;;;;9.57;5.15;;;;;;;;;;4981346;28;20047;-85
2021/06/17 02:05:10;;;;;;;4.90;3.83;;;;;;;;;;5002101;28;20046;-84
2021/06/17 02:07:41;;;;;;;8.45;4.22;;;;;;;;;;5001422;28;20046;-85
2021/06/17 02:10:08;;;;;;;8.70;4.72;;;;;;;;;;5002119;28;20167;-85
2021/06/17 02:12:35;;;;;;;5.13;4.07;;;;;;;;;;5000536;28;20042;-85
2021/06/17 02:15:02;;;;;;;7.10;4.55;;;;;;;;;;5001670;28;20050;-85
2021/06/17 02:17:30;;;;;;;4.95;3.53;;;;;;;;;;4985039;28;20050;-84
2021/06/17 02:19:58;;;;;;;5.47;3.90;;;;;;;;;;5001938;28;20430;-84
2021/06/17 02:22:27;;;;;;;5.47;4.32;;;;;;;;;;5002006;28;20050;-85
2021/06/17 02:24:55;;;;;;;5.97;4.00;;;;;;;;;;5002415;28;20494;-84
2021/06/17 02:27:26;;;;;;;6.07;4.60;;;;;;;;;;5002768;28;20054;-84
2021/06/17 02:29:52;;;;;;;6.38;4.28;;;;;;;;;;4997625;28;20057;-83
2021/06/17 02:32:20;;;;;;;6.25;4.10;;;;;;;;;;5002069;28;20046;-84
2021/06/17 02:34:48;;;;;;;6.13;4.75;;;;;;;;;;5002506;28;20062;-84
2021/06/17 02:37:18;;;;;;;5.70;4.13;;;;;;;;;;4985332;28;20046;-84
2021/06/17 02:39:46;;;;;;;6.65;4.50;;;;;;;;;;5002303;28;20053;-83
2021/06/17 02:42:16;;;;;;;5.93;4.90;;;;;;;;;;5002465;28;20046;-83
2021/06/17 02:44:43;;;;;;;4.60;3.70;;;;;;;;;;5002335;28;20043;-84
2021/06/17 02:47:09;;;;;;;7.13;4.68;;;;;;;;;;4985240;28;20057;-85
2021/06/17 02:49:36;;;;;;;5.30;4.50;;;;;;;;;;5002250;28;20042;-84
2021/06/17 02:52:03;;;;;;;5.30;4.03;;;;;;;;;;5004015;28;20046;-84
2021/06/17 02:54:31;;;;;;;6.15;5.07;;;;;;;;;;5004585;28;20057;-84
2021/06/17 02:57:03;;;;;;;7.78;4.20;;;;;;;;;;5004155;28;20053;-85
2021/06/17 02:59:39;;;;;;;8.90;5.45;;;;;;;;;;5003263;28;20050;-83
2021/06/17 03:02:06;;;;;;;;;;;;;;;;;;5002475;28;20043;-84
2021/06/17 03:04:48;;;;;;;7.45;4.57;;;;;;;;;;5001963;28;19922;-85
2021/06/17 03:07:21;;;;;;;6.85;4.47;;;;;;;;;;5001707;28;20487;-84
2021/06/17 03:09:53;;;;;;;6.65;4.60;;;;;;;;;;5002231;28;20077;-83
2021/06/17 03:12:22;;;;;;;7.40;4.40;;;;;;;;;;5001806;28;20046;-84
2021/06/17 03:14:50;;;;;;;8.98;5.30;;;;;;;;;;5001430;28;20049;-85
2021/06/17 03:17:17;;;;;;;12.27;5.13;;;;;;;;;;5001394;28;20137;-84
2021/06/17 03:19:46;;;;;;;6.05;4.38;;;;;;;;;;5001881;28;20053;-84
2021/06/17 03:22:14;;;;;;;7.97;5.00;;;;;;;;;;5001343;28;20050;-85
2021/06/17 03:24:42;;;;;;;5.68;4.28;;;;;;;;;;5001978;28;20055;-83
2021/06/17 03:27:10;;;;;;;10.13;5.20;;;;;;;;;;5001070;28;20053;-83
2021/06/17 03:29:41;;;;;;;8.88;5.22;;;;;;;;;;4998294;28;20043;-85
2021/06/17 03:32:10;;;;;;;5.97;4.75;;;;;;;;;;4982936;28;20100;-84
2021/06/17 03:34:38;;;;;;;5.07;4.32;;;;;;;;;;5000488;28;20108;-84
2021/06/17 03:37:06;;;;;;;7.75;4.63;;;;;;;;;;4985257;28;20042;-84
2021/06/17 03:39:33;;;;;;;7.68;4.50;;;;;;;;;;5001579;28;20050;-85
2021/06/17 03:42:01;;;;;;;7.60;4.97;;;;;;;;;;5001889;28;20054;-85
2021/06/17 03:44:30;;;;;;;8.13;4.85;;;;;;;;;;5001438;28;20101;-85
2021/06/17 03:46:57;;;;;;;8.48;4.72;;;;;;;;;;5001466;28;20046;-84
2021/06/17 03:49:24;;;;;;;8.38;4.60;;;;;;;;;;5001148;28;20042;-85
2021/06/17 03:51:51;;;;;;;6.55;4.53;;;;;;;;;;5000571;28;20053;-85
2021/06/17 03:54:24;;;;;;;8.52;4.53;;;;;;;;;;4997740;28;20529;-85
2021/06/17 03:56:52;;;;;;;6.07;4.78;;;;;;;;;;4990294;28;20046;-85
2021/06/17 03:59:21;;;;;;;6.97;4.80;;;;;;;;;;4996724;28;20064;-86
2021/06/17 04:01:49;;;;;;;6.80;3.80;;;;;;;;;;5002221;28;20065;-86
2021/06/17 04:04:16;;;;;;;5.65;4.18;;;;;;;;;;4997500;28;20550;-85
2021/06/17 04:06:43;;;;;;;6.18;4.38;;;;;;;;;;4996305;28;20105;-85
2021/06/17 04:09:09;;;;;;;5.55;4.10;;;;;;;;;;4995099;28;20101;-85
2021/06/17 04:11:36;;;;;;;6.80;4.78;;;;;;;;;;4995518;28;20434;-85
2021/06/17 04:14:03;;;;;;;7.03;5.38;;;;;;;;;;4999080;28;20492;-85
2021/06/17 04:16:30;;;;;;;6.72;4.35;;;;;;;;;;4997450;28;20046;-86
2021/06/17 04:18:58;;;;;;;6.55;4.85;;;;;;;;;;4998644;28;20050;-87
2021/06/17 04:21:26;;;;;;;4.65;3.92;;;;;;;;;;4999215;28;20053;-86
2021/06/17 04:23:54;;;;;;;8.65;5.47;;;;;;;;;;4999732;28;20050;-85
2021/06/17 04:26:23;;;;;;;6.53;4.30;;;;;;;;;;4983738;28;20060;-85
2021/06/17 04:28:51;;;;;;;5.85;3.90;;;;;;;;;;5000096;28;20046;-86
2021/06/17 04:31:17;;;;;;;6.40;4.80;;;;;;;;;;4987563;28;20046;-87
2021/06/17 04:33:44;;;;;;;6.72;4.15;;;;;;;;;;5000347;28;20052;-86
2021/06/17 04:36:13;;;;;;;6.32;4.78;;;;;;;;;;5002500;28;20582;-85
2021/06/17 04:38:40;;;;;;;6.85;4.78;;;;;;;;;;4984632;28;20569;-86
2021/06/17 04:41:08;;;;;;;6.50;4.53;;;;;;;;;;4984143;28;20046;-86
2021/06/17 04:43:36;;;;;;;7.03;4.78;;;;;;;;;;5000017;28;20054;-86
2021/06/17 04:46:04;;;;;;;8.80;5.18;;;;;;;;;;5002123;28;20047;-85
2021/06/17 04:48:34;;;;;;;8.45;5.75;;;;;;;;;;5002904;28;20051;-85
2021/06/17 04:51:01;;;;;;;13.82;8.73;;;;;;;;;;4986584;28;20121;-86
2021/06/17 04:53:31;;;;;;;12.75;6.22;;;;;;;;;;4985114;28;20120;-85
2021/06/17 04:55:58;;;;;;;15.95;6.30;;;;;;;;;;5002205;28;20569;-86
2021/06/17 04:58:25;;;;;;;11.35;5.47;;;;;;;;;;4981998;28;20487;-90
2021/06/17 05:00:52;;;;;;;8.48;4.95;;;;;;;;;;4997887;28;20049;-85
2021/06/17 05:03:20;;;;;;;8.55;5.00;;;;;;;;;;4999178;28;20132;-87
2021/06/17 05:05:49;;;;;;;7.32;5.30;;;;;;;;;;5001141;28;20054;-84
2021/06/17 05:11:02;;;;;;;7.05;5.47;;;;;;;;;;5001239;28;20065;-85
2021/06/17 05:13:30;;;;;;;6.75;5.20;;;;;;;;;;5001335;28;20347;-84
2021/06/17 05:15:58;;;;;;;6.85;5.40;;;;;;;;;;4999673;28;20066;-85
2021/06/17 05:18:27;;;;;;;8.52;5.35;;;;;;;;;;5002398;28;20054;-86
2021/06/17 05:20:55;;;;;;;8.95;6.05;;;;;;;;;;4982759;28;20145;-85
2021/06/17 05:23:24;;;;;;;7.82;6.75;;;;;;;;;;4999836;28;20542;-86
2021/06/17 05:25:51;;;;;;;10.18;6.65;;;;;;;;;;4999863;28;20054;-84
2021/06/17 05:28:22;;;;;;;12.52;6.85;;;;;;;;;;4984786;28;20047;-85
2021/06/17 05:30:49;;;;;;;7.85;6.53;;;;;;;;;;4999350;28;20077;-83
2021/06/17 05:33:16;;;;;;;8.23;5.03;;;;;;;;;;4984193;28;20042;-84
2021/06/17 05:35:44;;;;;;;8.63;6.05;;;;;;;;;;4998782;28;20062;-84
2021/06/17 05:38:10;;;;;;;16.73;6.97;;;;;;;;;;4999692;28;20070;-85
2021/06/17 05:40:37;;;;;;;9.85;7.10;;;;;;;;;;5001795;28;20050;-88
2021/06/17 05:43:04;;;;;;;14.10;7.35;;;;;;;;;;5006657;28;20589;-86
2021/06/17 05:45:31;;;;;;;10.70;7.00;;;;;;;;;;5008430;28;20068;-86
2021/06/17 05:47:58;;;;;;;30.25;8.98;;;;;;;;;;5006104;28;20054;-84
2021/06/17 05:50:24;;;;;;;9.98;7.68;;;;;;;;;;4998958;28;20046;-84
2021/06/17 05:52:51;;;;;;;10.15;7.47;;;;;;;;;;4995257;28;20046;-84
2021/06/17 05:55:18;;;;;;;10.13;8.00;;;;;;;;;;4975749;28;20050;-89
2021/06/17 05:57:44;;;;;;;12.95;7.85;;;;;;;;;;4991494;28;20058;-84
2021/06/17 06:00:12;;;;;;;11.98;7.65;;;;;;;;;;4992724;28;20133;-83
2021/06/17 06:02:40;;;;;;;27.00;8.85;;;;;;;;;;4993672;28;20049;-86
2021/06/17 06:05:07;;;;;;;13.07;8.20;;;;;;;;;;4991944;28;20491;-85
2021/06/17 06:07:34;;;;;;;12.02;7.88;;;;;;;;;;4994218;28;20042;-84
2021/06/17 06:10:00;;;;;;;12.35;7.45;;;;;;;;;;4977589;28;20042;-87
2021/06/17 06:12:27;;;;;;;10.73;8.35;;;;;;;;;;4995742;28;20159;-84
2021/06/17 06:14:54;;;;;;;12.13;8.10;;;;;;;;;;4997956;28;20042;-86
2021/06/17 06:17:21;;;;;;;10.10;7.93;;;;;;;;;;4993982;28;20046;-83
2021/06/17 06:19:49;;;;;;;8.75;7.47;;;;;;;;;;4979071;28;20043;-84
2021/06/17 06:22:15;;;;;;;9.25;7.47;;;;;;;;;;4995247;28;20661;-85
2021/06/17 06:24:42;;;;;;;9.27;7.32;;;;;;;;;;4997097;28;20061;-85
2021/06/17 06:27:10;;;;;;;8.65;7.47;;;;;;;;;;4991284;28;20061;-84
2021/06/17 06:29:37;;;;;;;9.30;7.28;;;;;;;;;;4995303;28;20089;-82
2021/06/17 06:32:05;;;;;;;9.25;7.10;;;;;;;;;;4993436;28;20047;-86
2021/06/17 06:34:31;;;;;;;9.80;6.38;;;;;;;;;;4989114;28;20054;-84
2021/06/17 06:36:59;;;;;;;8.43;7.00;;;;;;;;;;4994293;28;20042;-84
2021/06/17 06:39:26;;;;;;;10.02;7.13;;;;;;;;;;4994244;28;20503;-83
2021/06/17 06:41:53;;;;;;;8.18;7.03;;;;;;;;;;4996030;28;20494;-84
2021/06/17 06:44:19;;;;;;;9.57;6.57;;;;;;;;;;4994214;28;20061;-83
2021/06/17 06:46:46;;;;;;;9.82;7.32;;;;;;;;;;4994293;28;20461;-86
2021/06/17 06:49:12;;;;;;;9.20;6.63;;;;;;;;;;4998255;28;20051;-85
2021/06/17 06:51:40;;;;;;;10.15;6.65;;;;;;;;;;5001838;28;20042;-86
2021/06/17 06:54:09;;;;;;;9.00;6.60;;;;;;;;;;4990636;28;20066;-85
2021/06/17 06:56:36;;;;;;;7.53;6.28;;;;;;;;;;4990875;28;20669;-84
2021/06/17 06:59:03;;;;;;;6.80;5.20;;;;;;;;;;4990452;28;20050;-86
2021/06/17 07:01:29;;;;;;;5.57;4.97;;;;;;;;;;4990620;28;20110;-85
2021/06/17 07:03:56;;;;;;;6.78;5.10;;;;;;;;;;4993759;28;20463;-86
2021/06/17 07:06:22;;;;;;;6.97;5.22;;;;;;;;;;4992406;28;20049;-82
2021/06/17 07:08:49;;;;;;;7.03;4.65;;;;;;;;;;4987782;28;20054;-85
2021/06/17 07:11:17;;;;;;;6.70;5.57;;;;;;;;;;4992979;28;20047;-84
2021/06/17 07:13:43;;;;;;;8.65;5.80;;;;;;;;;;4995231;28;20053;-84
2021/06/17 07:16:10;;;;;;;5.85;5.00;;;;;;;;;;4997698;28;20062;-84
2021/06/17 07:18:36;;;;;;;6.45;5.63;;;;;;;;;;4995555;28;20480;-86
2021/06/17 07:21:03;;;;;;;8.77;4.90;;;;;;;;;;4998330;28;20035;-85
2021/06/17 07:23:32;;;;;;;12.07;4.68;;;;;;;;;;4992456;28;20503;-84
2021/06/17 07:25:59;;;;;;;7.70;5.50;;;;;;;;;;5001767;28;20043;-84
2021/06/17 07:28:27;;;;;;;6.53;5.10;;;;;;;;;;5000945;28;20056;-84
2021/06/17 07:30:53;;;;;;;9.43;5.25;;;;;;;;;;5002912;28;20042;-85
2021/06/17 07:33:20;;;;;;;5.72;4.70;;;;;;;;;;4998765;28;20602;-82
2021/06/17 07:35:46;;;;;;;8.05;4.43;;;;;;;;;;4997586;28;20042;-83
2021/06/17 07:38:15;;;;;;;6.88;4.40;;;;;;;;;;4997032;28;20054;-83
2021/06/17 07:40:42;;;;;;;5.32;4.20;;;;;;;;;;4977115;28;20097;-82
2021/06/17 07:43:09;;;;;;;7.00;4.53;;;;;;;;;;4992449;28;20465;-82
2021/06/17 07:45:38;;;;;;;6.28;4.43;;;;;;;;;;4988754;28;20311;-82
2021/06/17 07:48:10;;;;;;;7.03;3.63;;;;;;;;;;4995737;28;20050;-82
2021/06/17 07:50:36;;;;;;;6.95;3.83;;;;;;;;;;4993963;28;20061;-82
2021/06/17 07:53:03;;;;;;;5.10;3.55;;;;;;;;;;4993150;28;20050;-83
2021/06/17 07:55:30;;;;;;;5.97;3.75;;;;;;;;;;4994327;28;20054;-83
2021/06/17 07:57:56;;;;;;;5.63;3.75;;;;;;;;;;4995211;28;20123;-84
2021/06/17 08:00:23;;;;;;;5.22;3.90;;;;;;;;;;4995395;28;20410;-83
2021/06/17 08:02:51;;;;;;;5.68;3.80;;;;;;;;;;4983172;28;20046;-83
2021/06/17 08:05:18;;;;;;;4.05;3.45;;;;;;;;;;5000360;28;20047;-83
2021/06/17 08:07:44;;;;;;;5.38;3.70;;;;;;;;;;4999833;28;20062;-84
2021/06/17 08:10:12;;;;;;;4.65;3.80;;;;;;;;;;5000603;28;20042;-83
2021/06/17 08:12:38;;;;;;;7.15;3.85;;;;;;;;;;5000690;28;20042;-83
2021/06/17 08:15:07;;;;;;;6.72;3.63;;;;;;;;;;4999876;28;20053;-82
2021/06/17 08:17:33;;;;;;;4.55;3.13;;;;;;;;;;5000572;28;20133;-82
2021/06/17 08:20:01;;;;;;;5.95;3.85;;;;;;;;;;4999844;28;20058;-82
2021/06/17 08:22:28;;;;;;;4.68;3.75;;;;;;;;;;4998584;28;20081;-80
2021/06/17 08:24:55;;;;;;;4.65;3.65;;;;;;;;;;4999053;28;20477;-83
2021/06/17 08:27:22;;;;;;;5.60;3.70;;;;;;;;;;4997977;28;20046;-82
2021/06/17 08:29:49;;;;;;;4.40;3.28;;;;;;;;;;4997850;28;20120;-85
2021/06/17 08:32:15;;;;;;;5.57;4.00;;;;;;;;;;4998982;28;20051;-81
2021/06/17 08:34:42;;;;;;;7.00;3.30;;;;;;;;;;4993889;28;20054;-81
2021/06/17 08:37:10;;;;;;;5.78;3.20;;;;;;;;;;4994481;28;20486;-81
2021/06/17 08:39:36;;;;;;;4.75;3.47;;;;;;;;;;4998592;28;20129;-85
2021/06/17 08:42:04;;;;;;;5.70;3.70;;;;;;;;;;4990922;28;20046;-82
2021/06/17 08:44:31;;;;;;;10.10;3.78;;;;;;;;;;4998444;28;20053;-82
2021/06/17 08:46:59;;;;;;;6.50;3.47;;;;;;;;;;4997655;28;20073;-82
2021/06/17 08:49:27;;;;;;;8.43;4.00;;;;;;;;;;4998425;28;20054;-82
2021/06/17 08:51:57;;;;;;;6.03;3.80;;;;;;;;;;4998494;28;20039;-82
2021/06/17 08:54:26;;;;;;;6.38;4.05;;;;;;;;;;4999890;28;20136;-82
2021/06/17 08:56:53;;;;;;;6.80;3.58;;;;;;;;;;4998955;28;20080;-81
2021/06/17 08:59:19;;;;;;;6.68;4.18;;;;;;;;;;4999515;28;20057;-83
2021/06/17 09:01:54;;;;;;;9.50;4.60;;;;;;;;;;4999228;28;20129;-82
2021/06/17 09:04:21;;;;;;;;;;;;;;;;;;4998729;28;20047;-82
2021/06/17 09:07:01;;;;;;;11.75;5.05;;;;;;;;;;4997288;28;19968;-83
2021/06/17 09:09:33;;;;;;;5.13;4.32;;;;;;;;;;4999026;28;20050;-82
2021/06/17 09:12:00;;;;;;;8.38;5.13;;;;;;;;;;4997726;28;20062;-83
2021/06/17 09:14:28;;;;;;;12.13;4.43;;;;;;;;;;4999420;28;20406;-82
2021/06/17 09:16:59;;;;;;;6.13;4.13;;;;;;;;;;4998606;28;20073;-82
2021/06/17 09:19:40;;;;;;;6.60;4.28;;;;;;;;;;4999969;28;20407;-82
2021/06/17 09:22:08;;;;;;;6.50;4.03;;;;;;;;;;4993137;28;20060;-82
2021/06/17 09:24:37;;;;;;;7.93;4.70;;;;;;;;;;4999513;28;20502;-83
2021/06/17 09:27:26;;;;;;;8.75;3.95;;;;;;;;;;4991640;28;20042;-82
2021/06/17 09:29:54;;;;;;;12.30;4.30;;;;;;;;;;4998811;28;20058;-83
2021/06/17 09:32:22;;;;;;;10.27;4.60;;;;;;;;;;4998871;28;20081;-82
2021/06/17 09:34:48;;;;;;;10.73;4.35;;;;;;;;;;4998913;28;20042;-82
2021/06/17 09:37:34;;;;;;;5.47;4.28;;;;;;;;;;4989372;28;20045;-83
2021/06/17 09:40:30;;;;;;;6.28;4.40;;;;;;;;;;4999698;28;20050;-83
2021/06/17 09:43:14;;;;;;;8.32;3.90;;;;;;;;;;4996949;28;20055;-82
2021/06/17 09:45:42;;;;;;;10.50;4.10;;;;;;;;;;4998165;28;20224;-83
2021/06/17 09:48:29;;;;;;;8.00;3.70;;;;;;;;;;4997386;28;20046;-82
2021/06/17 09:50:56;;;;;;;5.97;3.58;;;;;;;;;;4997872;28;20053;-83
2021/06/17 09:53:25;;;;;;;13.00;4.35;;;;;;;;;;4998208;28;20046;-82
2021/06/17 09:55:53;;;;;;;8.98;4.07;;;;;;;;;;4998895;28;20050;-83
2021/06/17 09:58:35;;;;;;;6.90;3.47;;;;;;;;;;4999457;28;20053;-82
2021/06/17 10:01:02;;;;;;;6.75;3.80;;;;;;;;;;4996438;28;20414;-83
2021/06/17 10:03:29;;;;;;;7.72;3.55;;;;;;;;;;4999449;28;20050;-82
2021/06/17 10:05:56;;;;;;;6.63;3.38;;;;;;;;;;4998229;28;20050;-84
2021/06/17 10:08:23;;;;;;;10.10;4.05;;;;;;;;;;4998482;28;20052;-85
2021/06/17 10:10:50;;;;;;;7.65;3.35;;;;;;;;;;4998199;28;20053;-84
2021/06/17 10:13:20;;;;;;;8.15;3.20;;;;;;;;;;4997350;28;20047;-83
2021/06/17 10:15:49;;;;;;;6.82;4.13;;;;;;;;;;4995809;28;20109;-83
2021/06/17 10:18:15;;;;;;;7.40;2.80;;;;;;;;;;4999296;28;20383;-84
2021/06/17 10:20:42;;;;;;;6.75;2.60;;;;;;;;;;5000107;28;20061;-85
2021/06/17 10:23:09;;;;;;;6.35;2.75;;;;;;;;;;4978571;28;20042;-84
2021/06/17 10:25:36;;;;;;;5.07;2.67;;;;;;;;;;4996517;28;20050;-83
2021/06/17 10:28:04;;;;;;;8.15;3.33;;;;;;;;;;4998699;28;20237;-85
2021/06/17 10:30:43;;;;;;;4.93;2.75;;;;;;;;;;4999561;28;20054;-84
2021/06/17 10:33:27;;;;;;;5.68;3.15;;;;;;;;;;4992417;28;20077;-84
2021/06/17 10:36:22;;;;;;;5.13;3.05;;;;;;;;;;4998162;28;20046;-84
2021/06/17 10:39:15;;;;;;;9.63;3.13;;;;;;;;;;4993254;28;20089;-83
2021/06/17 10:42:13;;;;;;;4.35;2.67;;;;;;;;;;4992101;28;20049;-87
2021/06/17 10:44:48;;;;;;;6.13;2.63;;;;;;;;;;4997666;28;20046;-83
2021/06/17 10:48:02;;;;;;;4.03;2.20;;;;;;;;;;4993970;28;20057;-85
2021/06/17 10:50:40;;;;;;;4.18;2.38;;;;;;;;;;4996550;28;20042;-85
2021/06/17 10:53:18;;;;;;;3.88;2.60;;;;;;;;;;4990713;28;20065;-85
2021/06/17 10:55:59;;;;;;;4.15;2.67;;;;;;;;;;4997353;28;20564;-85
2021/06/17 10:59:06;;;;;;;4.25;2.10;;;;;;;;;;4988942;28;20539;-85
2021/06/17 11:01:38;;;;;;;3.88;2.15;;;;;;;;;;4993601;28;20058;-84
2021/06/17 11:04:06;;;;;;;5.03;2.22;;;;;;;;;;4989094;28;20046;-84
2021/06/17 11:07:13;;;;;;;7.07;2.30;;;;;;;;;;4992117;28;20495;-85
2021/06/17 11:09:58;;;;;;;4.28;2.22;;;;;;;;;;4992043;28;20050;-84
2021/06/17 11:12:45;;;;;;;4.20;2.50;;;;;;;;;;4994395;28;20047;-84
2021/06/17 11:15:12;;;;;;;3.95;2.55;;;;;;;;;;4985252;28;20043;-84
2021/06/17 11:17:42;;;;;;;3.92;2.88;;;;;;;;;;4997955;28;20062;-84
2021/06/17 11:20:11;;;;;;;3.85;2.65;;;;;;;;;;4995598;28;20411;-82
2021/06/17 11:22:40;;;;;;;3.78;2.45;;;;;;;;;;4993201;28;20087;-84
2021/06/17 11:25:14;;;;;;;6.55;1.85;;;;;;;;;;4998887;28;20093;-84
2021/06/17 11:27:59;;;;;;;5.13;2.50;;;;;;;;;;4995833;28;20407;-84
2021/06/17 11:31:00;;;;;;;3.72;2.38;;;;;;;;;;4996744;28;20065;-84
2021/06/17 11:33:46;;;;;;;2.45;1.85;;;;;;;;;;4990900;28;20042;-85
2021/06/17 11:36:17;;;;;;;5.07;2.15;;;;;;;;;;4998602;28;20148;-86
2021/06/17 11:38:44;;;;;;;4.72;2.20;;;;;;;;;;4998963;28;20042;-84
2021/06/17 11:41:13;;;;;;;3.83;2.33;;;;;;;;;;4997188;28;20051;-83
2021/06/17 11:43:42;;;;;;;6.00;2.35;;;;;;;;;;5002996;28;20050;-85
2021/06/17 11:46:22;;;;;;;5.13;1.95;;;;;;;;;;4997637;28;20102;-84
2021/06/17 11:48:58;;;;;;;3.67;2.20;;;;;;;;;;5001979;28;20047;-85
2021/06/17 11:51:25;;;;;;;4.28;2.20;;;;;;;;;;4998644;28;20043;-86
2021/06/17 11:53:56;;;;;;;9.13;1.80;;;;;;;;;;4998573;28;20113;-85
2021/06/17 11:56:27;;;;;;;6.78;2.40;;;;;;;;;;5007091;28;20046;-85
2021/06/17 11:58:57;;;;;;;4.03;2.17;;;;;;;;;;5003175;28;20050;-85
2021/06/17 12:01:25;;;;;;;6.45;2.15;;;;;;;;;;5009707;28;20054;-85
2021/06/17 12:03:57;;;;;;;4.50;2.25;;;;;;;;;;5008779;28;20050;-84
2021/06/17 12:06:23;;;;;;;4.70;1.88;;;;;;;;;;5000308;28;20072;-83
2021/06/17 12:09:05;;;;;;;6.10;2.30;;;;;;;;;;4985847;28;20442;-86
2021/06/17 12:11:32;;;;;;;7.80;2.22;;;;;;;;;;5001228;28;20141;-84
2021/06/17 12:14:01;;;;;;;5.03;2.10;;;;;;;;;;4983899;28;20077;-86
2021/06/17 12:16:29;;;;;;;2.78;2.10;;;;;;;;;;5002242;28;20146;-86
2021/06/17 12:18:56;;;;;;;6.65;2.00;;;;;;;;;;5001324;28;20156;-83
2021/06/17 12:21:28;;;;;;;4.65;1.90;;;;;;;;;;5003283;28;20101;-87
2021/06/17 12:23:54;;;;;;;4.70;2.17;;;;;;;;;;4999663;28;20483;-84
2021/06/17 12:26:21;;;;;;;3.53;2.10;;;;;;;;;;4997147;28;20058;-84
2021/06/17 12:28:52;;;;;;;3.05;2.05;;;;;;;;;;4997318;28;20113;-84
2021/06/17 12:31:28;;;;;;;3.25;2.00;;;;;;;;;;4999174;28;20061;-85
2021/06/17 12:34:06;;;;;;;4.63;2.17;;;;;;;;;;5002390;28;20643;-86
2021/06/17 12:36:33;;;;;;;5.22;2.35;;;;;;;;;;4995507;28;20043;-86
2021/06/17 12:39:09;;;;;;;4.47;2.00;;;;;;;;;;4992768;28;20061;-87
2021/06/17 12:41:41;;;;;;;5.75;1.98;;;;;;;;;;4997428;28;20085;-86
2021/06/17 12:44:08;;;;;;;3.78;2.35;;;;;;;;;;4999526;28;20081;-84
2021/06/17 12:46:38;;;;;;;7.60;2.40;;;;;;;;;;4998654;28;20046;-84
2021/06/17 12:49:26;;;;;;;6.65;2.30;;;;;;;;;;4991535;28;20050;-84
2021/06/17 12:52:05;;;;;;;4.57;2.30;;;;;;;;;;4998832;28;20050;-84
2021/06/17 12:54:35;;;;;;;5.70;2.30;;;;;;;;;;4996532;28;20533;-85
2021/06/17 12:57:04;;;;;;;3.75;2.40;;;;;;;;;;4997085;28;20058;-85
2021/06/17 12:59:36;;;;;;;3.13;2.08;;;;;;;;;;4995954;28;20050;-84
2021/06/17 13:02:05;;;;;;;2.75;2.00;;;;;;;;;;4996475;28;20089;-83
2021/06/17 13:04:31;;;;;;;5.22;2.25;;;;;;;;;;4996109;28;20062;-84
2021/06/17 13:06:59;;;;;;;2.47;1.77;;;;;;;;;;4993228;28;20064;-86
2021/06/17 13:09:27;;;;;;;4.05;1.95;;;;;;;;;;4984467;28;20443;-84
2021/06/17 13:12:16;;;;;;;5.07;2.63;;;;;;;;;;4977001;28;20136;-84
2021/06/17 13:15:00;;;;;;;8.10;2.17;;;;;;;;;;4993067;28;20066;-84
2021/06/17 13:17:28;;;;;;;4.10;2.30;;;;;;;;;;4996102;28;20729;-85
2021/06/17 13:19:57;;;;;;;5.75;2.08;;;;;;;;;;4997245;28;20406;-85
2021/06/17 13:22:24;;;;;;;7.85;2.33;;;;;;;;;;4996986;28;20061;-85
2021/06/17 13:24:51;;;;;;;4.47;2.00;;;;;;;;;;4996324;28;20050;-87
2021/06/17 13:27:20;;;;;;;5.68;2.25;;;;;;;;;;4991684;28;20057;-86
2021/06/17 13:29:55;;;;;;;3.45;1.98;;;;;;;;;;4977753;28;20057;-86
2021/06/17 13:32:22;;;;;;;2.92;2.35;;;;;;;;;;4995834;28;20046;-87
2021/06/17 13:34:51;;;;;;;5.55;2.70;;;;;;;;;;4987289;28;20096;-85
2021/06/17 13:37:18;;;;;;;17.98;3.50;;;;;;;;;;4981864;28;20046;-85
2021/06/17 13:39:45;;;;;;;19.35;3.70;;;;;;;;;;4994005;28;20096;-87
2021/06/17 13:42:15;;;;;;;7.13;2.25;;;;;;;;;;4993251;28;20073;-86
2021/06/17 13:44:42;;;;;;;5.35;2.30;;;;;;;;;;4994399;28;20096;-86
2021/06/17 13:47:09;;;;;;;5.38;2.25;;;;;;;;;;4994745;28;20057;-85
2021/06/17 13:49:37;;;;;;;6.05;2.67;;;;;;;;;;4993490;28;20046;-89
2021/06/17 13:52:07;;;;;;;3.22;2.53;;;;;;;;;;4978672;28;20050;-86
2021/06/17 13:54:33;;;;;;;5.72;2.60;;;;;;;;;;4996552;28;20084;-85
2021/06/17 13:57:00;;;;;;;4.68;2.78;;;;;;;;;;4995872;28;20042;-85
2021/06/17 13:59:27;;;;;;;7.53;2.75;;;;;;;;;;4988763;28;20046;-86
2021/06/17 14:01:53;;;;;;;4.72;2.50;;;;;;;;;;4973150;28;20137;-86
2021/06/17 14:04:20;;;;;;;9.27;2.75;;;;;;;;;;4990589;28;20053;-86
2021/06/17 14:06:47;;;;;;;4.80;2.75;;;;;;;;;;4976061;28;20050;-85
2021/06/17 14:09:16;;;;;;;5.50;2.38;;;;;;;;;;4989732;28;20383;-85
2021/06/17 14:11:45;;;;;;;2.55;1.90;;;;;;;;;;4990606;28;20740;-85
2021/06/17 14:14:11;;;;;;;3.40;2.30;;;;;;;;;;4994482;28;20046;-85
2021/06/17 14:16:38;;;;;;;3.13;2.10;;;;;;;;;;4992007;28;20053;-87
2021/06/17 14:19:04;;;;;;;3.83;2.00;;;;;;;;;;4996782;28;20105;-84
2021/06/17 14:21:31;;;;;;;17.50;3.50;;;;;;;;;;4990433;28;20057;-85
2021/06/17 14:23:58;;;;;;;4.50;2.03;;;;;;;;;;4988905;28;20050;-86
2021/06/17 14:26:26;;;;;;;4.03;2.22;;;;;;;;;;4983757;28;20066;-86
2021/06/17 14:28:52;;;;;;;2.83;1.83;;;;;;;;;;4986998;28;20046;-84
2021/06/17 14:31:19;;;;;;;3.92;1.95;;;;;;;;;;4991890;28;20402;-86
2021/06/17 14:33:45;;;;;;;3.15;1.80;;;;;;;;;;4996415;28;20043;-84
2021/06/17 14:36:12;;;;;;;2.53;1.50;;;;;;;;;;4996793;28;20042;-85
2021/06/17 14:38:39;;;;;;;2.75;1.60;;;;;;;;;;4997998;28;20046;-83
2021/06/17 14:41:06;;;;;;;4.53;2.00;;;;;;;;;;4990499;28;20042;-84
2021/06/17 14:43:33;;;;;;;4.15;2.13;;;;;;;;;;4995385;28;20060;-85
2021/06/17 14:46:00;;;;;;;3.13;1.80;;;;;;;;;;4997110;28;20057;-84
2021/06/17 14:48:27;;;;;;;2.80;1.80;;;;;;;;;;4976024;28;20046;-85
2021/06/17 14:50:53;;;;;;;3.50;1.90;;;;;;;;;;4986271;28;20046;-85
2021/06/17 14:53:20;;;;;;;2.50;1.80;;;;;;;;;;4993923;28;20042;-85
2021/06/17 14:55:47;;;;;;;3.83;1.73;;;;;;;;;;4996252;28;20077;-85
2021/06/17 14:58:13;;;;;;;1.80;1.45;;;;;;;;;;4991755;28;20487;-86
2021/06/17 15:00:41;;;;;;;4.65;2.17;;;;;;;;;;4975846;28;20483;-86